Gilbert, Iowa
Current Conditions -  °F | °C
As of 5:53 AM on Friday 28 Nov 2014 (Local Time) from KAMW Reporting Station
Scattered Clouds Scattered Clouds  
Wind Chill:   Ceiling: Unl
Heat Index: 15°   Visibility: 10mi
Dew Point:   Wind: 10mph
Humidity: 77%   Direction: 140°SE
Pressure: 30.02"   Gusts: NA
Location:  42.11°N, 93.65°W
Report Text: KAMW 281153Z AUTO 14009KT 10SM SCT110 M09/M13 A3002 RMK AO2 SLP181 T10941128 11094 21117 56037 $
Loading
Personal Weather Stations






























Interactive Weather Map New forecast layout! Learn more

10-Day Weather Forecast

Advertisements
Track Severe Weather on mobile